Colden Common, United Kingdom
Current Conditions -  °F | °C
As of 12:50 PM on Saturday 22 Nov 2014 (Local Time) from EGHI Reporting Station
Overcast Overcast  
Wind Chill: 14°   Ceiling: 800
Heat Index: 14°   Visibility: 6mi
Dew Point: 13°   Wind: 8mph
Humidity: 94%   Direction: 210°SSW
Pressure: 29.91"   Gusts: NA
Location:  50.99°N, 1.31°W
Report Text: EGHI 221250Z 21007KT 170V230 9000 BKN008 OVC014 14/13 Q1013
Loading
Personal Weather Stations






























Interactive Weather Map New forecast layout! Learn more

10-Day Weather Forecast

Advertisements
Track Severe Weather on mobile